Time;durP1;ratioP1;P1;durP2;ratioP2;P2;SDS_P1;SDS_P2;PMS_P1;PMS_P2;Temp;Humidity;BMP_temperature;BMP_pressure;BME280_temperature;BME280_humidity;BME280_pressure;Samples;Min_cycle;Max_cycle;Signal;HPM_P1;HPM_P2
2023/09/15 00:01:37;;;;;;;4.95;2.13;;;;;;;11.38;100.00;99115.56;5113876;27;20023;-55
2023/09/15 00:04:06;;;;;;;4.50;2.28;;;;;;;11.38;100.00;99117.44;5108100;27;20606;-55
2023/09/15 00:06:35;;;;;;;4.95;2.25;;;;;;;11.45;100.00;99112.03;5111572;27;20103;-55
2023/09/15 00:09:06;;;;;;;8.40;2.78;;;;;;;11.38;100.00;99114.75;5125594;27;20022;-55
2023/09/15 00:11:40;;;;;;;3.65;1.88;;;;;;;11.39;100.00;99113.69;5113232;27;20531;-54
2023/09/15 00:14:11;;;;;;;3.00;2.00;;;;;;;11.39;100.00;99113.69;5128035;27;20019;-55
2023/09/15 00:16:41;;;;;;;4.40;2.10;;;;;;;11.32;100.00;99116.38;5113727;27;20023;-55
2023/09/15 00:19:08;;;;;;;3.70;2.38;;;;;;;11.28;100.00;99117.81;5125391;27;20019;-55
2023/09/15 00:21:33;;;;;;;3.13;2.10;;;;;;;11.23;100.00;99120.28;5112199;27;20040;-55
2023/09/15 00:24:05;;;;;;;4.18;2.67;;;;;;;11.21;100.00;99111.50;5130469;27;20018;-54
2023/09/15 00:26:32;;;;;;;3.63;2.13;;;;;;;11.35;100.00;99107.84;5127034;27;20023;-55
2023/09/15 00:28:58;;;;;;;5.40;2.72;;;;;;;11.28;100.00;99114.28;5126544;27;20065;-54
2023/09/15 00:31:24;;;;;;;4.03;2.58;;;;;;;11.24;100.00;99112.97;5105426;27;20031;-54
2023/09/15 00:33:49;;;;;;;8.10;2.65;;;;;;;11.21;100.00;99114.22;5114051;27;20043;-55
2023/09/15 00:36:15;;;;;;;4.43;2.67;;;;;;;11.26;100.00;99102.78;5116015;27;20031;-55
2023/09/15 00:38:40;;;;;;;4.55;2.80;;;;;;;11.33;100.00;99100.97;5117758;27;20015;-54
2023/09/15 00:41:05;;;;;;;3.83;2.65;;;;;;;11.28;100.00;99100.72;5104294;27;20034;-54
2023/09/15 00:43:31;;;;;;;4.53;2.75;;;;;;;11.23;100.00;99112.16;5114832;27;20026;-54
2023/09/15 00:45:56;;;;;;;7.85;3.03;;;;;;;11.10;100.00;99104.78;5113614;27;20470;-55
2023/09/15 00:48:22;;;;;;;6.57;3.58;;;;;;;11.07;100.00;99120.59;5105751;27;20487;-54
2023/09/15 00:50:47;;;;;;;3.53;2.45;;;;;;;11.02;100.00;99107.66;5114789;27;20080;-54
2023/09/15 00:53:19;;;;;;;4.10;2.33;;;;;;;11.05;100.00;99103.72;5109768;27;20020;-55
2023/09/15 00:55:47;;;;;;;4.50;2.60;;;;;;;11.00;100.00;99103.47;5124402;27;20030;-55
2023/09/15 00:58:15;;;;;;;3.55;2.10;;;;;;;10.88;100.00;99103.22;5126243;27;20019;-55
2023/09/15 01:00:42;;;;;;;7.63;2.47;;;;;;;10.85;100.00;99106.31;5108604;27;20039;-54
2023/09/15 01:03:08;;;;;;;4.45;2.53;;;;;;;10.74;100.00;99095.00;5100021;27;20016;-55
2023/09/15 01:05:34;;;;;;;6.07;2.33;;;;;;;10.83;100.00;99111.91;5107762;27;20434;-55
2023/09/15 01:08:00;;;;;;;5.22;2.42;;;;;;;11.00;100.00;99106.19;5116301;27;20030;-55
2023/09/15 01:10:25;;;;;;;3.45;2.15;;;;;;;10.97;100.00;99105.53;5134946;27;20381;-55
2023/09/15 01:12:53;;;;;;;4.47;2.60;;;;;;;10.92;100.00;99094.47;5123989;27;20375;-55
2023/09/15 01:15:25;;;;;;;3.92;2.35;;;;;;;10.83;100.00;99106.50;5122846;27;20026;-54
2023/09/15 01:18:00;;;;;;;4.72;2.60;;;;;;;10.85;100.00;99109.03;5100281;27;20027;-54
2023/09/15 01:20:55;;;;;;;6.45;2.85;;;;;;;10.79;100.00;99107.09;5116212;27;20478;-54
2023/09/15 01:23:42;;;;;;;8.23;2.33;;;;;;;10.70;100.00;99104.53;5106525;27;20031;-54
2023/09/15 01:26:13;;;;;;;5.18;2.55;;;;;;;10.58;100.00;99092.56;5119577;27;20115;-54
2023/09/15 01:29:05;;;;;;;5.70;2.80;;;;;;;10.48;100.00;99097.50;5127068;27;20028;-54
2023/09/15 01:31:30;;;;;;;5.32;2.72;;;;;;;10.51;100.00;99102.53;5129889;27;20438;-54
2023/09/15 01:33:56;;;;;;;6.30;3.30;;;;;;;10.44;100.00;99097.03;5134727;27;20112;-54
2023/09/15 01:36:22;;;;;;;7.40;3.20;;;;;;;10.37;100.00;99092.59;5117509;27;20028;-54
2023/09/15 01:38:47;;;;;;;5.10;2.90;;;;;;;10.42;100.00;99096.38;5124054;27;20019;-54
2023/09/15 01:41:12;;;;;;;8.30;3.55;;;;;;;10.41;100.00;99110.13;5107991;27;20027;-54
2023/09/15 01:43:38;;;;;;;5.35;3.20;;;;;;;10.46;100.00;99102.25;5122215;27;20328;-54
2023/09/15 01:46:04;;;;;;;8.40;3.10;;;;;;;10.43;100.00;99108.91;5101416;27;20030;-54
2023/09/15 01:48:30;;;;;;;4.55;2.80;;;;;;;10.38;100.00;99110.53;5106010;27;20168;-54
2023/09/15 01:50:57;;;;;;;7.45;3.45;;;;;;;10.35;100.00;99105.47;5100419;27;20023;-54
2023/09/15 01:53:23;;;;;;;5.93;3.15;;;;;;;10.41;100.00;99110.13;5116732;27;20470;-54
2023/09/15 01:55:49;;;;;;;8.07;3.00;;;;;;;10.40;100.00;99103.03;5120639;27;20099;-54
2023/09/15 01:58:15;;;;;;;4.07;2.90;;;;;;;10.40;100.00;99103.03;5096398;27;20069;-54
2023/09/15 02:00:40;;;;;;;4.85;2.85;;;;;;;10.37;100.00;99096.13;5109343;27;20105;-55
2023/09/15 02:03:06;;;;;;;7.10;3.22;;;;;;;10.30;100.00;99100.66;5104038;27;20031;-55
2023/09/15 02:05:32;;;;;;;3.90;2.58;;;;;;;10.28;100.00;99095.44;5111428;27;20031;-54
2023/09/15 02:07:57;;;;;;;4.93;2.85;;;;;;;10.34;100.00;99104.66;5118674;27;20023;-54
2023/09/15 02:10:23;;;;;;;4.70;2.72;;;;;;;10.26;100.00;99102.88;5117473;27;20087;-55
2023/09/15 02:12:50;;;;;;;7.72;3.13;;;;;;;10.23;100.00;99102.44;5116337;27;20042;-55
2023/09/15 02:15:17;;;;;;;4.00;2.67;;;;;;;10.23;100.00;99097.88;5120787;27;20023;-55
2023/09/15 02:17:43;;;;;;;5.32;3.17;;;;;;;10.19;100.00;99099.31;5111109;27;20040;-54
2023/09/15 02:20:11;;;;;;;6.22;2.60;;;;;;;10.31;100.00;99100.47;5112705;27;20538;-54
2023/09/15 02:22:46;;;;;;;6.32;2.97;;;;;;;10.39;100.00;99098.66;5104754;27;20026;-55
2023/09/15 02:25:11;;;;;;;5.60;2.70;;;;;;;10.36;100.00;99108.00;5120509;27;20388;-55
2023/09/15 02:27:38;;;;;;;5.50;3.00;;;;;;;10.33;100.00;99104.84;5104234;27;20018;-55
2023/09/15 02:30:05;;;;;;;9.38;4.35;;;;;;;10.21;100.00;99099.91;5112621;27;20451;-55
2023/09/15 02:32:30;;;;;;;8.65;4.30;;;;;;;10.23;100.00;99097.88;5107371;27;20062;-54
2023/09/15 02:34:56;;;;;;;8.15;4.45;;;;;;;10.28;100.00;99094.63;5119629;27;20439;-55
2023/09/15 02:37:21;;;;;;;6.45;3.90;;;;;;;10.38;100.00;99102.41;5114701;27;20027;-55
2023/09/15 02:39:46;;;;;;;8.35;5.35;;;;;;;10.26;100.00;99102.88;5111992;27;20112;-54
2023/09/15 02:42:12;;;;;;;9.13;5.05;;;;;;;10.20;100.00;99098.25;5100221;27;20041;-55
2023/09/15 02:44:37;;;;;;;9.18;5.40;;;;;;;10.12;100.00;99101.09;5099232;27;20024;-54
2023/09/15 02:47:03;;;;;;;10.60;5.60;;;;;;;10.08;100.00;99099.78;5107414;27;20021;-55
2023/09/15 02:49:28;;;;;;;12.63;6.00;;;;;;;10.03;100.00;99096.81;5111083;27;20030;-55
2023/09/15 02:51:55;;;;;;;10.32;6.10;;;;;;;9.97;100.00;99094.91;5113091;27;20022;-55
2023/09/15 02:54:20;;;;;;;15.68;6.40;;;;;;;9.93;100.00;99086.34;5116383;27;20374;-55
2023/09/15 02:56:45;;;;;;;9.70;5.45;;;;;;;10.01;100.00;99094.34;5108840;28;20027;-55
2023/09/15 02:59:11;;;;;;;7.82;4.60;;;;;;;10.06;100.00;99088.31;5113428;28;20019;-54
2023/09/15 03:01:36;;;;;;;9.20;4.60;;;;;;;10.01;100.00;99090.81;5101874;27;20070;-54
2023/09/15 03:04:03;;;;;;;7.53;3.95;;;;;;;9.99;100.00;99090.16;5125958;27;20023;-54
2023/09/15 03:06:28;;;;;;;9.60;4.88;;;;;;;9.96;100.00;99095.94;5134938;27;20044;-54
2023/09/15 03:08:54;;;;;;;9.38;4.47;;;;;;;9.94;100.00;99087.19;5120541;28;20015;-54
2023/09/15 03:11:21;;;;;;;10.00;4.68;;;;;;;9.96;100.00;99095.94;5108321;28;20072;-54
2023/09/15 03:13:47;;;;;;;8.55;4.88;;;;;;;9.99;100.00;99096.38;5106036;27;20475;-54
2023/09/15 03:16:13;;;;;;;6.45;3.92;;;;;;;9.90;100.00;99094.00;5118044;27;20030;-54
2023/09/15 03:18:38;;;;;;;9.75;3.85;;;;;;;9.85;100.00;99099.97;5111007;27;20748;-55
2023/09/15 03:21:04;;;;;;;6.47;3.75;;;;;;;9.86;100.00;99102.50;5122995;27;20101;-54
2023/09/15 03:23:31;;;;;;;6.18;3.42;;;;;;;9.83;100.00;99097.47;5115124;27;20031;-55
2023/09/15 03:26:03;;;;;;;11.02;3.70;;;;;;;9.80;100.00;99089.75;5123028;27;20107;-54
2023/09/15 03:28:33;;;;;;;8.77;3.72;;;;;;;9.71;100.00;99090.06;5131283;27;20019;-54
2023/09/15 03:31:00;;;;;;;10.20;4.00;;;;;;;9.71;100.00;99082.78;5118769;27;20026;-54
2023/09/15 03:33:27;;;;;;;7.47;3.15;;;;;;;9.67;100.00;99086.91;5100823;27;20020;-54
2023/09/15 03:35:52;;;;;;;5.80;3.65;;;;;;;9.66;100.00;99091.44;5112835;27;20059;-55
2023/09/15 03:38:17;;;;;;;8.30;3.45;;;;;;;9.74;100.00;99092.38;5113605;27;20057;-55
2023/09/15 03:40:43;;;;;;;7.75;4.40;;;;;;;9.82;100.00;99090.41;5122748;27;20031;-54
2023/09/15 03:43:08;;;;;;;11.35;5.20;;;;;;;9.88;100.00;99089.63;5117298;27;20025;-55
2023/09/15 03:45:34;;;;;;;6.43;3.88;;;;;;;9.93;100.00;99091.75;5112499;27;20034;-55
2023/09/15 03:47:59;;;;;;;6.78;3.47;;;;;;;9.87;100.00;99097.91;5118190;27;20110;-55
2023/09/15 03:50:26;;;;;;;8.23;3.35;;;;;;;9.78;100.00;99097.22;5121889;27;20080;-55
2023/09/15 03:52:51;;;;;;;6.40;3.38;;;;;;;9.73;100.00;99091.53;5102810;27;20056;-54
2023/09/15 03:55:17;;;;;;;9.98;3.40;;;;;;;9.74;100.00;99095.06;5118102;27;20035;-55
2023/09/15 03:57:42;;;;;;;5.50;3.38;;;;;;;9.78;100.00;99094.50;5105718;27;20027;-54
2023/09/15 04:00:15;;;;;;;5.50;3.00;;;;;;;9.75;100.00;99094.88;5120873;27;20019;-54
2023/09/15 04:02:41;;;;;;;6.20;3.50;;;;;;;9.75;100.00;99088.66;5109978;27;20022;-54
2023/09/15 04:05:07;;;;;;;7.28;4.18;;;;;;;9.68;100.00;99088.56;5117846;27;20015;-54
2023/09/15 04:07:32;;;;;;;6.10;4.13;;;;;;;9.65;100.00;99088.94;5113308;27;20015;-54
2023/09/15 04:09:58;;;;;;;9.32;4.47;;;;;;;9.68;100.00;99093.97;5119892;27;20025;-54
2023/09/15 04:12:24;;;;;;;11.00;4.45;;;;;;;9.72;100.00;99094.41;5105931;27;20047;-54
2023/09/15 04:14:49;;;;;;;10.55;5.13;;;;;;;9.70;100.00;99096.50;5118917;27;20029;-54
2023/09/15 04:17:14;;;;;;;8.18;4.90;;;;;;;9.69;100.00;99101.03;5115904;27;20031;-54
2023/09/15 04:19:40;;;;;;;7.75;4.88;;;;;;;9.64;100.00;99093.53;5110202;27;20042;-54
2023/09/15 04:22:05;;;;;;;9.25;5.13;;;;;;;9.61;100.00;99084.94;5111529;27;20019;-54
2023/09/15 04:24:31;;;;;;;6.55;4.43;;;;;;;9.63;100.00;99088.31;5123660;27;20024;-54
2023/09/15 04:26:56;;;;;;;5.63;3.08;;;;;;;9.60;100.00;99091.38;5116851;27;20549;-54
2023/09/15 04:29:21;;;;;;;6.65;3.30;;;;;;;9.53;100.00;99085.88;5123029;27;20023;-54
2023/09/15 04:31:47;;;;;;;7.47;3.67;;;;;;;9.49;100.00;99083.78;5115147;27;20073;-53
2023/09/15 04:34:14;;;;;;;6.32;3.67;;;;;;;9.46;100.00;99086.84;5105016;28;20032;-53
2023/09/15 04:36:40;;;;;;;9.15;3.95;;;;;;;9.50;100.00;99080.03;5106129;27;20027;-53
2023/09/15 04:39:05;;;;;;;5.82;3.22;;;;;;;9.55;100.00;99080.31;5133098;27;20063;-54
2023/09/15 04:41:31;;;;;;;5.60;3.28;;;;;;;9.47;100.00;99075.03;5115675;27;20054;-54
2023/09/15 04:43:57;;;;;;;11.38;4.10;;;;;;;9.47;100.00;99081.25;5109672;27;20027;-54
2023/09/15 04:46:24;;;;;;;11.88;4.50;;;;;;;9.44;100.00;99074.38;5106752;27;20027;-54
2023/09/15 04:48:50;;;;;;;8.52;4.10;;;;;;;9.54;100.00;99079.47;5117085;27;20026;-53
2023/09/15 04:51:16;;;;;;;9.05;4.85;;;;;;;9.52;100.00;99078.81;5108932;27;20114;-55
2023/09/15 04:53:41;;;;;;;12.23;4.13;;;;;;;9.48;100.00;99080.22;5099578;27;20076;-55
2023/09/15 04:56:07;;;;;;;11.68;3.78;;;;;;;9.47;100.00;99078.56;5098914;27;20536;-54
2023/09/15 04:58:32;;;;;;;11.82;4.00;;;;;;;9.41;100.00;99077.47;5101641;27;20538;-54
2023/09/15 05:00:59;;;;;;;7.43;3.90;;;;;;;9.39;100.00;99078.66;5103398;27;20075;-54
2023/09/15 05:03:25;;;;;;;8.60;3.80;;;;;;;9.42;100.00;99083.69;5108735;27;20032;-54
2023/09/15 05:05:51;;;;;;;16.35;5.20;;;;;;;9.50;100.00;99080.88;5105132;27;20034;-55
2023/09/15 05:08:18;;;;;;;10.80;4.30;;;;;;;9.65;100.00;99067.34;5120107;27;20450;-54
2023/09/15 05:10:49;;;;;;;10.20;3.90;;;;;;;9.69;100.00;99074.00;5105109;27;20023;-54
2023/09/15 05:13:15;;;;;;;11.40;4.05;;;;;;;9.82;100.00;99085.00;5106906;27;20023;-54
2023/09/15 05:15:41;;;;;;;8.38;3.75;;;;;;;9.84;100.00;99074.81;5097255;27;20023;-55
2023/09/15 05:18:06;;;;;;;6.00;3.38;;;;;;;9.86;100.00;99075.47;5111271;27;20046;-54
2023/09/15 05:20:32;;;;;;;8.98;3.88;;;;;;;9.95;100.00;99069.94;5103545;27;20501;-54
2023/09/15 05:22:58;;;;;;;6.68;3.72;;;;;;;9.92;100.00;99073.03;5114649;27;20023;-54
2023/09/15 05:25:23;;;;;;;5.43;3.40;;;;;;;9.88;100.00;99073.41;5138009;27;20045;-54
2023/09/15 05:27:49;;;;;;;8.63;4.38;;;;;;;9.97;100.00;99066.00;5115168;27;20442;-54
2023/09/15 05:30:15;;;;;;;6.10;3.67;;;;;;;10.06;100.00;99074.81;5104015;27;20016;-54
2023/09/15 05:32:41;;;;;;;7.63;3.38;;;;;;;10.16;100.00;99083.44;5099808;27;20027;-55
2023/09/15 05:35:09;;;;;;;6.28;3.47;;;;;;;10.36;100.00;99074.72;5108993;27;20447;-54
2023/09/15 05:37:34;;;;;;;6.72;3.72;;;;;;;10.37;100.00;99070.97;5104282;27;20054;-54
2023/09/15 05:40:00;;;;;;;9.02;3.70;;;;;;;10.81;100.00;99083.38;5101797;27;20023;-54
2023/09/15 05:42:25;;;;;;;4.85;2.95;;;;;;;13.30;100.00;99059.00;5107216;27;20035;-54
2023/09/15 05:44:54;;;;;;;7.05;2.38;;;;;;;16.59;100.00;99011.53;5105765;27;20025;-54
2023/09/15 05:47:20;;;;;;;4.88;2.30;;;;;;;18.42;100.00;98997.13;5138381;27;20805;-54
2023/09/15 05:49:45;;;;;;;6.82;2.58;;;;;;;19.68;100.00;99004.63;5121033;27;20035;-54
2023/09/15 05:52:11;;;;;;;3.88;2.28;;;;;;;20.40;100.00;98998.97;5109976;27;20031;-54
2023/09/15 05:54:36;;;;;;;5.93;2.50;;;;;;;20.38;100.00;99006.66;5101465;27;20108;-55
2023/09/15 05:57:02;;;;;;;4.10;2.20;;;;;;;21.28;100.00;99012.22;5105521;27;20034;-55
2023/09/15 05:59:28;;;;;;;3.33;2.20;;;;;;;21.51;100.00;99011.78;5108478;27;20027;-54
2023/09/15 06:01:55;;;;;;;4.50;2.35;;;;;;;23.34;88.24;99009.31;5113774;27;20035;-54
2023/09/15 06:04:20;;;;;;;5.68;1.90;;;;;;;24.56;76.63;99006.94;5114232;27;20056;-54
2023/09/15 06:06:46;;;;;;;3.75;2.17;;;;;;;24.27;73.86;99008.53;5107533;27;20023;-54
2023/09/15 06:09:11;;;;;;;5.90;2.50;;;;;;;25.19;70.70;99006.03;5108215;27;20023;-54
2023/09/15 06:11:37;;;;;;;4.85;2.47;;;;;;;26.61;62.43;99010.69;5109854;27;20032;-54
2023/09/15 06:14:02;;;;;;;4.35;2.30;;;;;;;29.02;53.89;99017.38;5115859;27;20128;-54
2023/09/15 06:16:28;;;;;;;6.43;2.08;;;;;;;28.28;53.13;99023.44;5101971;27;20061;-54
2023/09/15 06:18:53;;;;;;;7.63;2.60;;;;;;;28.11;53.42;99019.38;5127242;27;20114;-54
2023/09/15 06:21:19;;;;;;;6.28;2.45;;;;;;;27.87;52.36;99013.25;5111207;27;20031;-54
2023/09/15 06:23:44;;;;;;;4.53;2.50;;;;;;;28.12;53.00;99021.00;5113611;27;20023;-54
2023/09/15 06:26:09;;;;;;;5.38;2.40;;;;;;;28.39;52.25;99017.28;5108818;27;20030;-56
2023/09/15 06:28:35;;;;;;;4.07;2.25;;;;;;;27.96;53.52;99014.97;5100123;27;20089;-54
2023/09/15 06:31:00;;;;;;;4.68;2.25;;;;;;;27.86;53.21;99008.84;5101819;27;20043;-54
2023/09/15 06:33:26;;;;;;;3.80;2.40;;;;;;;28.42;53.38;99013.88;5112404;27;20015;-53
2023/09/15 06:35:51;;;;;;;3.40;2.35;;;;;;;29.33;51.19;99008.19;5109497;27;20019;-55
2023/09/15 06:38:17;;;;;;;3.35;2.40;;;;;;;30.41;48.36;99008.53;5107624;28;20456;-55
2023/09/15 06:40:44;;;;;;;3.33;2.38;;;;;;;30.01;48.82;99005.91;5106413;27;20048;-54
2023/09/15 06:43:10;;;;;;;5.03;2.90;;;;;;;30.61;48.26;98999.47;5111089;27;20026;-54
2023/09/15 06:45:35;;;;;;;6.30;2.72;;;;;;;30.11;48.40;99002.78;5104658;27;20027;-54
2023/09/15 06:48:01;;;;;;;8.60;2.33;;;;;;;29.64;48.97;98997.81;5103865;27;20386;-55
2023/09/15 06:50:26;;;;;;;3.03;2.10;;;;;;;29.72;49.00;98998.16;5116761;27;20047;-55
2023/09/15 06:52:52;;;;;;;4.50;2.33;;;;;;;29.93;48.49;98999.16;5114448;27;20026;-54
2023/09/15 06:55:17;;;;;;;4.60;2.30;;;;;;;29.87;48.42;99000.50;5099196;28;20100;-53
2023/09/15 06:57:42;;;;;;;7.32;2.00;;;;;;;30.13;48.52;99000.50;5099002;27;20108;-55
2023/09/15 07:00:09;;;;;;;4.25;2.15;;;;;;;29.07;49.08;99010.88;5103250;27;20036;-54
2023/09/15 07:02:35;;;;;;;5.25;2.15;;;;;;;30.02;48.14;99007.53;5108624;27;20452;-54
2023/09/15 07:05:00;;;;;;;6.88;2.10;;;;;;;31.23;45.82;99006.53;5119507;28;20059;-54
2023/09/15 07:07:26;;;;;;;3.65;2.30;;;;;;;30.38;47.14;99009.22;5105731;27;20757;-54
2023/09/15 07:09:51;;;;;;;3.65;2.47;;;;;;;29.91;47.31;99001.47;5105143;28;20107;-54
2023/09/15 07:12:17;;;;;;;7.00;2.50;;;;;;;29.09;50.09;99005.81;5123257;27;20027;-54
2023/09/15 07:14:42;;;;;;;6.07;2.78;;;;;;;30.14;48.09;98999.34;5122176;28;20035;-54
2023/09/15 07:17:08;;;;;;;4.82;2.67;;;;;;;30.31;47.88;99002.16;5101684;27;20031;-54
2023/09/15 07:19:33;;;;;;;4.57;2.30;;;;;;;31.30;46.38;98995.66;5122837;27;20031;-54
2023/09/15 07:21:59;;;;;;;4.20;2.60;;;;;;;31.26;46.06;99003.09;5119231;27;20037;-54
2023/09/15 07:24:24;;;;;;;3.22;2.20;;;;;;;32.70;45.35;98996.31;5125744;27;20019;-53
2023/09/15 07:26:51;;;;;;;5.47;2.58;;;;;;;33.87;43.31;98991.34;5107261;28;20117;-54
2023/09/15 07:29:17;;;;;;;6.30;2.83;;;;;;;31.81;44.48;98992.94;5104884;28;20019;-55
2023/09/15 07:31:42;;;;;;;4.40;2.60;;;;;;;31.94;45.98;98994.66;5110028;27;20081;-56
2023/09/15 07:34:09;;;;;;;4.45;2.60;;;;;;;31.86;46.46;98979.56;5095331;28;20015;-56
2023/09/15 07:36:34;;;;;;;5.38;2.53;;;;;;;33.09;44.62;98982.00;5129562;27;20090;-55
2023/09/15 07:39:00;;;;;;;5.68;2.70;;;;;;;33.01;44.24;98988.53;5111014;27;20463;-55
2023/09/15 07:41:25;;;;;;;6.10;2.55;;;;;;;33.89;42.79;98984.22;5111471;27;20084;-55
2023/09/15 07:43:53;;;;;;;4.93;2.40;;;;;;;33.97;42.97;98976.84;5111920;28;20466;-55
2023/09/15 07:46:19;;;;;;;5.03;2.95;;;;;;;33.42;44.27;98978.31;5118448;27;20113;-56
2023/09/15 07:48:45;;;;;;;3.55;2.42;;;;;;;33.53;43.70;98979.44;5105156;28;20030;-55
2023/09/15 07:51:15;;;;;;;3.60;2.50;;;;;;;34.49;43.21;98975.94;5103578;28;20429;-55
2023/09/15 07:53:41;;;;;;;3.38;2.28;;;;;;;35.28;42.11;98975.25;5110318;28;20367;-55
2023/09/15 07:56:07;;;;;;;5.50;2.50;;;;;;;35.02;41.81;98975.78;5114460;28;20025;-55
2023/09/15 07:58:32;;;;;;;4.80;2.40;;;;;;;34.28;43.06;98978.97;5106525;28;20027;-55
2023/09/15 08:00:57;;;;;;;4.60;2.40;;;;;;;35.29;41.37;98974.06;5111977;28;20027;-55
2023/09/15 08:03:23;;;;;;;3.80;2.35;;;;;;;34.41;42.41;98966.50;5107058;28;20027;-55
2023/09/15 08:05:49;;;;;;;3.90;2.53;;;;;;;35.59;41.27;98965.97;5125909;27;20027;-57
2023/09/15 08:08:15;;;;;;;3.55;2.30;;;;;;;33.57;43.95;98978.44;5119784;27;20027;-55
2023/09/15 08:10:40;;;;;;;8.23;2.80;;;;;;;33.53;43.42;98979.44;5138641;27;20030;-56
2023/09/15 08:13:06;;;;;;;3.75;2.78;;;;;;;34.89;41.08;98977.84;5123050;27;20082;-55
2023/09/15 08:15:31;;;;;;;3.03;2.58;;;;;;;34.47;42.28;98981.09;5124923;27;20027;-55
2023/09/15 08:17:57;;;;;;;3.15;2.15;;;;;;;35.48;41.13;98968.50;5124503;27;20362;-56
2023/09/15 08:20:23;;;;;;;4.10;2.28;;;;;;;34.99;40.58;98968.06;5119986;27;20462;-55
2023/09/15 08:22:49;;;;;;;4.15;2.47;;;;;;;36.87;39.96;98969.03;5106101;27;20027;-56
2023/09/15 08:25:15;;;;;;;2.47;2.00;;;;;;;37.65;38.64;98972.34;5114408;27;20032;-56
2023/09/15 08:27:43;;;;;;;3.42;2.30;;;;;;;37.20;38.97;98966.41;5108958;27;20023;-56
2023/09/15 08:30:09;;;;;;;3.10;2.08;;;;;;;37.49;39.13;98956.41;5112779;27;20023;-57
2023/09/15 08:32:34;;;;;;;3.58;2.50;;;;;;;37.65;37.90;98964.72;5121032;27;20031;-57
2023/09/15 08:35:00;;;;;;;4.85;2.53;;;;;;;37.62;37.52;98959.81;5104701;27;20368;-56
2023/09/15 08:37:26;;;;;;;5.47;2.50;;;;;;;38.54;36.46;98952.97;5106885;27;20057;-57
2023/09/15 08:39:51;;;;;;;2.53;2.05;;;;;;;38.99;35.89;98951.03;5108421;27;20086;-56
2023/09/15 08:42:26;;;;;;;6.03;2.40;;;;;;;37.74;37.38;98958.78;5119369;27;20485;-56
2023/09/15 08:44:53;;;;;;;4.57;2.45;;;;;;;38.60;36.74;98953.44;5109582;27;20545;-56
2023/09/15 08:47:22;;;;;;;4.22;2.30;;;;;;;39.00;36.04;98950.59;5115347;27;20070;-56
2023/09/15 08:49:49;;;;;;;4.65;2.55;;;;;;;39.65;34.85;98943.44;5102257;27;20098;-56
2023/09/15 08:52:18;;;;;;;2.70;2.13;;;;;;;39.38;35.60;98940.03;5114835;27;20027;-55
2023/09/15 08:54:45;;;;;;;3.58;1.98;;;;;;;40.81;34.04;98939.03;5114993;27;20088;-56
2023/09/15 08:57:11;;;;;;;5.10;2.28;;;;;;;39.63;35.68;98945.84;5120549;27;20479;-56
2023/09/15 08:59:37;;;;;;;5.68;2.53;;;;;;;39.84;35.89;98939.50;5104067;27;20023;-56
2023/09/15 09:02:03;;;;;;;4.07;2.40;;;;;;;37.14;37.39;98939.72;5120801;27;20365;-56
2023/09/15 09:04:29;;;;;;;3.13;2.47;;;;;;;35.65;39.27;98943.97;5126183;27;20079;-55
2023/09/15 09:06:55;;;;;;;3.55;2.00;;;;;;;38.32;38.39;98941.38;5123377;27;20027;-56
2023/09/15 09:09:23;;;;;;;2.50;1.90;;;;;;;39.57;36.54;98938.94;5106848;27;20463;-56
2023/09/15 09:11:48;;;;;;;3.03;2.10;;;;;;;40.89;34.98;98935.81;5112225;27;20028;-56
2023/09/15 09:14:15;;;;;;;3.92;2.45;;;;;;;40.40;35.23;98933.66;5105227;27;20039;-56
2023/09/15 09:16:44;;;;;;;3.00;2.20;;;;;;;39.19;36.66;98935.41;5096552;27;20540;-56
2023/09/15 09:19:10;;;;;;;3.58;2.20;;;;;;;39.25;36.84;98930.22;5112210;28;20066;-56
2023/09/15 09:21:36;;;;;;;3.53;2.55;;;;;;;39.44;36.13;98926.31;5102799;27;20031;-56
2023/09/15 09:24:02;;;;;;;5.75;2.28;;;;;;;40.95;34.36;98922.00;5100506;27;20080;-55
2023/09/15 09:26:28;;;;;;;4.47;2.60;;;;;;;38.73;37.40;98918.81;5112990;27;20121;-55
2023/09/15 09:28:59;;;;;;;5.85;2.95;;;;;;;38.45;38.33;98922.19;5113162;27;20111;-56
2023/09/15 09:31:29;;;;;;;3.72;2.90;;;;;;;38.47;37.48;98916.97;5107113;27;20079;-55
2023/09/15 09:33:55;;;;;;;4.82;3.08;;;;;;;39.13;37.48;98913.53;5114240;27;20095;-56
2023/09/15 09:36:21;;;;;;;3.70;3.17;;;;;;;38.40;37.88;98914.00;5129804;27;20050;-56
2023/09/15 09:38:49;;;;;;;4.53;2.70;;;;;;;39.30;37.18;98912.03;5104503;27;20461;-56
2023/09/15 09:41:21;;;;;;;4.53;2.95;;;;;;;39.88;36.98;98902.72;5105792;27;20018;-56
2023/09/15 09:43:47;;;;;;;3.40;2.10;;;;;;;41.29;35.88;98904.59;5108384;27;20054;-56
2023/09/15 09:46:18;;;;;;;3.33;2.10;;;;;;;40.66;36.40;98896.47;5103194;27;20445;-56
2023/09/15 09:48:45;;;;;;;3.47;2.05;;;;;;;42.92;33.39;98892.09;5116303;27;20026;-56
2023/09/15 09:51:11;;;;;;;2.83;1.90;;;;;;;42.13;34.63;98889.75;5122742;27;20478;-57
2023/09/15 09:53:37;;;;;;;4.63;2.00;;;;;;;42.88;34.40;98889.28;5105677;27;20046;-56
2023/09/15 09:56:06;;;;;;;3.15;1.92;;;;;;;42.50;34.08;98883.47;5108519;27;20390;-56
2023/09/15 09:58:33;;;;;;;3.13;2.00;;;;;;;42.75;33.85;98891.00;5115597;27;20035;-56
2023/09/15 10:00:59;;;;;;;2.67;2.42;;;;;;;43.54;33.07;98888.25;5101066;27;20075;-56
2023/09/15 10:03:24;;;;;;;3.20;2.47;;;;;;;41.25;33.60;98884.72;5120566;27;20416;-57
2023/09/15 10:05:51;;;;;;;4.10;2.35;;;;;;;40.23;35.11;98892.72;5118080;27;20039;-56
2023/09/15 10:08:16;;;;;;;2.60;1.90;;;;;;;41.81;35.02;98887.84;5099840;27;20066;-56
2023/09/15 10:10:44;;;;;;;2.17;1.77;;;;;;;42.03;33.45;98883.72;5103620;27;20058;-56
2023/09/15 10:13:16;;;;;;;2.65;1.38;;;;;;;42.80;34.00;98880.00;5116244;27;20026;-56
2023/09/15 10:15:43;;;;;;;5.45;2.10;;;;;;;44.86;31.19;98871.41;5113871;27;20027;-57
2023/09/15 10:18:12;;;;;;;3.15;2.30;;;;;;;44.03;32.11;98868.97;5099577;27;20034;-57
2023/09/15 10:20:58;;;;;;;3.08;1.95;;;;;;;43.92;32.45;98862.56;5108942;27;20031;-57
2023/09/15 10:23:24;;;;;;;5.05;2.13;;;;;;;44.21;31.52;98865.06;5100023;27;20044;-57
2023/09/15 10:25:53;;;;;;;3.83;2.20;;;;;;;44.27;30.76;98861.28;5122511;27;20023;-57
2023/09/15 10:28:21;;;;;;;3.53;1.63;;;;;;;43.66;32.17;98862.09;5115173;27;20031;-56
2023/09/15 10:33:25;;;;;;;1.70;1.55;;;;;;;44.92;31.43;98858.25;5704539;22;20140;-74
2023/09/15 10:35:51;;;;;;;4.40;1.90;;;;;;;44.53;30.54;98851.13;5011091;28;20092;-79
2023/09/15 10:38:29;;;;;;;4.55;2.30;;;;;;;43.29;31.09;98848.66;5005364;28;20051;-82
2023/09/15 10:40:58;;;;;;;2.30;2.10;;;;;;;41.12;32.91;98849.47;5015127;28;20113;-81
2023/09/15 10:43:23;;;;;;;3.38;2.10;;;;;;;41.97;33.38;98810.63;5012701;28;23025;-82
2023/09/15 10:46:02;;;;;;;3.92;2.00;;;;;;;44.26;31.54;98836.84;5011050;28;20022;-77
2023/09/15 10:48:44;;;;;;;3.42;2.13;;;;;;;43.58;31.11;98829.22;5008414;28;20018;-76
2023/09/15 10:51:10;;;;;;;3.03;2.03;;;;;;;42.75;32.49;98832.03;4999996;28;20018;-76
2023/09/15 10:53:43;;;;;;;2.43;2.13;;;;;;;42.03;32.76;98828.91;5027725;28;20030;-81
2023/09/15 10:56:09;;;;;;;3.17;1.90;;;;;;;41.92;32.87;98814.75;5009557;28;20365;-78
2023/09/15 10:58:35;;;;;;;2.47;2.00;;;;;;;41.70;32.93;98810.38;5008080;28;20101;-77
2023/09/15 11:01:01;;;;;;;3.75;2.20;;;;;;;41.45;31.24;98797.06;5000545;28;20036;-78
2023/09/15 11:03:28;;;;;;;2.28;1.70;;;;;;;40.18;32.66;98806.03;5004463;28;20109;-75
2023/09/15 11:05:55;;;;;;;2.83;2.00;;;;;;;42.17;32.49;98803.22;5007336;28;20026;-74
2023/09/15 11:08:21;;;;;;;2.47;2.05;;;;;;;41.50;30.99;98810.00;5012265;28;20496;-72
2023/09/15 11:10:46;;;;;;;2.83;1.85;;;;;;;40.23;31.08;98802.84;5006348;28;20018;-72
2023/09/15 11:13:12;;;;;;;2.10;1.73;;;;;;;39.69;31.88;98809.50;5005593;28;20029;-73
2023/09/15 11:15:37;;;;;;;2.70;1.90;;;;;;;39.52;32.44;98799.75;5007378;28;20494;-73
2023/09/15 11:18:04;;;;;;;2.53;2.15;;;;;;;39.49;32.11;98792.06;5005424;28;20113;-74
2023/09/15 11:20:30;;;;;;;6.10;1.95;;;;;;;38.66;32.35;98794.34;5006246;28;20021;-73
2023/09/15 11:22:56;;;;;;;2.42;1.85;;;;;;;38.07;34.38;98799.84;5005448;28;20430;-74
2023/09/15 11:25:22;;;;;;;2.42;1.60;;;;;;;38.78;33.71;98785.53;5008530;28;20521;-74
2023/09/15 11:27:48;;;;;;;4.13;2.08;;;;;;;37.16;34.42;98779.34;5007204;28;20050;-75
2023/09/15 11:30:14;;;;;;;3.17;1.95;;;;;;;38.88;34.16;98788.81;5004285;28;20500;-74